Time;durP1;ratioP1;P1;durP2;ratioP2;P2;SDS_P1;SDS_P2;PMS_P1;PMS_P2;Temp;Humidity;BMP_temperature;BMP_pressure;BME280_temperature;BME280_humidity;BME280_pressure;Samples;Min_cycle;Max_cycle;Signal;HPM_P1;HPM_P2
2022/10/22 00:00:16;;;;;;;4.18;2.58;;;;;;;;;;1039284;28;20041;-81
2022/10/22 00:00:47;;;;;;;4.53;2.67;;;;;;;;;;1039239;28;20029;-83
2022/10/22 00:01:19;;;;;;;7.45;2.55;;;;;;;;;;1032370;28;20025;-84
2022/10/22 00:01:50;;;;;;;6.22;2.42;;;;;;;;;;1032320;28;20054;-81
2022/10/22 00:02:21;;;;;;;5.80;2.40;;;;;;;;;;1035745;28;20045;-82
2022/10/22 00:02:52;;;;;;;3.65;1.77;;;;;;;;;;1035472;28;20030;-82
2022/10/22 00:03:23;;;;;;;5.75;2.67;;;;;;;;;;1039084;28;20021;-83
2022/10/22 00:03:54;;;;;;;4.18;2.33;;;;;;;;;;1039175;28;20084;-82
2022/10/22 00:04:25;;;;;;;3.40;2.40;;;;;;;;;;1040172;28;20038;-83
2022/10/22 00:04:56;;;;;;;2.83;2.00;;;;;;;;;;1039319;28;20026;-83
2022/10/22 00:05:27;;;;;;;3.22;2.33;;;;;;;;;;1035551;28;20026;-82
2022/10/22 00:05:58;;;;;;;4.40;2.15;;;;;;;;;;1039193;28;20018;-82
2022/10/22 00:06:29;;;;;;;3.70;2.38;;;;;;;;;;1038941;28;20419;-83
2022/10/22 00:07:00;;;;;;;4.43;2.80;;;;;;;;;;1035875;28;20113;-83
2022/10/22 00:07:31;;;;;;;4.70;2.92;;;;;;;;;;1034649;28;20501;-83
2022/10/22 00:08:02;;;;;;;5.18;2.40;;;;;;;;;;1036746;28;20029;-83
2022/10/22 00:08:33;;;;;;;4.28;2.15;;;;;;;;;;1035063;28;20104;-82
2022/10/22 00:09:04;;;;;;;3.75;2.30;;;;;;;;;;1034688;28;20030;-82
2022/10/22 00:09:38;;;;;;;4.28;2.70;;;;;;;;;;1039838;28;20085;-83
2022/10/22 00:10:09;;;;;;;4.05;2.80;;;;;;;;;;1034913;28;20072;-83
2022/10/22 00:10:40;;;;;;;3.65;2.15;;;;;;;;;;1034982;28;20026;-83
2022/10/22 00:11:15;;;;;;;3.97;2.20;;;;;;;;;;1035079;28;20038;-83
2022/10/22 00:11:46;;;;;;;11.40;2.25;;;;;;;;;;1034537;28;20580;-82
2022/10/22 00:12:17;;;;;;;2.25;2.00;;;;;;;;;;1031674;28;20023;-82
2022/10/22 00:12:48;;;;;;;4.72;2.22;;;;;;;;;;1031420;28;20019;-82
2022/10/22 00:13:19;;;;;;;4.63;2.67;;;;;;;;;;1035093;28;20022;-82
2022/10/22 00:13:50;;;;;;;2.65;2.03;;;;;;;;;;1039033;28;20551;-81
2022/10/22 00:14:21;;;;;;;2.95;2.33;;;;;;;;;;1039185;28;20465;-82
2022/10/22 00:14:52;;;;;;;3.90;2.42;;;;;;;;;;1039714;28;20021;-81
2022/10/22 00:15:23;;;;;;;6.72;2.65;;;;;;;;;;1034837;28;20036;-84
2022/10/22 00:15:54;;;;;;;3.40;2.25;;;;;;;;;;1034923;28;20010;-84
2022/10/22 00:16:25;;;;;;;7.68;2.58;;;;;;;;;;1035263;28;20022;-83
2022/10/22 00:16:59;;;;;;;8.52;2.15;;;;;;;;;;1035431;28;20464;-83
2022/10/22 00:17:30;;;;;;;3.85;2.47;;;;;;;;;;1033603;28;20116;-82
2022/10/22 00:18:01;;;;;;;3.78;2.58;;;;;;;;;;1031192;28;20019;-79
2022/10/22 00:18:32;;;;;;;4.00;2.35;;;;;;;;;;1032664;28;20026;-81
2022/10/22 00:19:03;;;;;;;3.75;2.03;;;;;;;;;;1039613;28;20500;-81
2022/10/22 00:19:34;;;;;;;3.88;2.05;;;;;;;;;;1043282;28;20082;-81
2022/10/22 00:20:06;;;;;;;5.07;2.95;;;;;;;;;;1035075;28;20025;-81
2022/10/22 00:20:36;;;;;;;3.00;1.85;;;;;;;;;;1034884;28;20021;-83
2022/10/22 00:21:08;;;;;;;4.88;2.30;;;;;;;;;;1036041;28;20030;-82
2022/10/22 00:21:39;;;;;;;3.72;2.05;;;;;;;;;;1038980;28;20032;-81
2022/10/22 00:22:10;;;;;;;3.20;2.15;;;;;;;;;;1042313;28;20083;-81
2022/10/22 00:22:41;;;;;;;3.53;2.03;;;;;;;;;;1038981;28;20022;-81
2022/10/22 00:23:12;;;;;;;3.53;2.08;;;;;;;;;;1039216;28;20021;-82
2022/10/22 00:23:43;;;;;;;2.92;2.35;;;;;;;;;;1034821;28;20026;-81
2022/10/22 00:24:14;;;;;;;3.55;2.67;;;;;;;;;;1035199;28;20017;-82
2022/10/22 00:24:45;;;;;;;5.95;2.65;;;;;;;;;;1035634;28;20231;-81
2022/10/22 00:25:16;;;;;;;3.20;2.13;;;;;;;;;;1035319;28;20022;-82
2022/10/22 00:25:47;;;;;;;4.75;2.33;;;;;;;;;;1039099;28;20049;-82
2022/10/22 00:26:18;;;;;;;4.70;3.55;;;;;;;;;;1035079;28;20050;-81
2022/10/22 00:26:49;;;;;;;3.88;2.42;;;;;;;;;;1039067;28;20029;-82
2022/10/22 00:27:20;;;;;;;9.38;3.42;;;;;;;;;;1039761;28;20006;-81
2022/10/22 00:27:51;;;;;;;4.75;2.45;;;;;;;;;;1039100;28;20013;-81
2022/10/22 00:28:23;;;;;;;6.63;3.00;;;;;;;;;;1034920;28;20033;-84
2022/10/22 00:28:54;;;;;;;3.83;2.45;;;;;;;;;;1030641;28;20105;-81
2022/10/22 00:29:25;;;;;;;3.03;2.70;;;;;;;;;;1026825;28;20033;-81
2022/10/22 00:29:56;;;;;;;11.30;2.60;;;;;;;;;;1027890;28;20031;-82
2022/10/22 00:30:27;;;;;;;7.07;2.25;;;;;;;;;;1030948;28;20029;-82
2022/10/22 00:30:58;;;;;;;4.70;2.53;;;;;;;;;;1027245;28;20065;-81
2022/10/22 00:31:29;;;;;;;4.40;2.25;;;;;;;;;;1027092;28;20019;-82
2022/10/22 00:32:00;;;;;;;4.05;2.30;;;;;;;;;;1027017;28;20023;-82
2022/10/22 00:32:31;;;;;;;2.63;1.88;;;;;;;;;;1035265;28;20594;-81
2022/10/22 00:33:02;;;;;;;4.38;2.97;;;;;;;;;;1035408;28;20508;-82
2022/10/22 00:33:34;;;;;;;3.22;1.80;;;;;;;;;;1039277;28;20026;-81
2022/10/22 00:34:05;;;;;;;4.38;2.53;;;;;;;;;;1039138;28;20048;-81
2022/10/22 00:34:36;;;;;;;7.65;2.60;;;;;;;;;;1035186;28;20037;-81
2022/10/22 00:35:07;;;;;;;4.22;2.22;;;;;;;;;;1031874;28;20034;-81
2022/10/22 00:35:38;;;;;;;4.90;2.20;;;;;;;;;;1031143;28;20046;-82
2022/10/22 00:36:09;;;;;;;4.15;2.00;;;;;;;;;;1031176;28;20026;-82
2022/10/22 00:36:40;;;;;;;3.90;2.33;;;;;;;;;;1031233;28;20126;-82
2022/10/22 00:37:11;;;;;;;4.88;2.80;;;;;;;;;;1035783;28;20026;-80
2022/10/22 00:37:41;;;;;;;3.28;2.28;;;;;;;;;;1035506;28;20026;-81
2022/10/22 00:38:12;;;;;;;5.03;2.50;;;;;;;;;;1035320;28;20033;-82
2022/10/22 00:38:43;;;;;;;3.90;2.47;;;;;;;;;;1031133;28;20121;-81
2022/10/22 00:39:16;;;;;;;4.72;1.83;;;;;;;;;;1031189;28;20023;-81
2022/10/22 00:39:47;;;;;;;2.30;2.10;;;;;;;;;;1034994;28;20022;-81
2022/10/22 00:40:18;;;;;;;2.92;2.42;;;;;;;;;;1036499;28;20093;-81
2022/10/22 00:40:49;;;;;;;6.70;2.90;;;;;;;;;;1039199;28;20100;-82
2022/10/22 00:41:20;;;;;;;5.70;2.65;;;;;;;;;;1039687;28;20030;-79
2022/10/22 00:41:52;;;;;;;4.22;2.30;;;;;;;;;;1043028;28;20017;-82
2022/10/22 00:42:24;;;;;;;7.47;2.88;;;;;;;;;;1038123;28;20614;-81
2022/10/22 00:42:55;;;;;;;5.65;2.20;;;;;;;;;;1035469;28;20417;-82
2022/10/22 00:43:26;;;;;;;3.95;2.55;;;;;;;;;;1035086;28;20659;-82
2022/10/22 00:44:00;;;;;;;4.78;2.30;;;;;;;;;;1034833;28;20486;-82
2022/10/22 00:44:49;;;;;;;4.32;3.13;;;;;;;;;;1035340;28;20117;-81
2022/10/22 00:45:23;;;;;;;5.00;2.15;;;;;;;;;;1035910;28;20030;-81
2022/10/22 00:45:54;;;;;;;3.67;2.50;;;;;;;;;;1038530;28;20108;-82
2022/10/22 00:46:25;;;;;;;4.40;3.38;;;;;;;;;;1038076;28;20033;-82
2022/10/22 00:46:56;;;;;;;3.17;2.45;;;;;;;;;;1039029;28;20026;-83
2022/10/22 00:47:35;;;;;;;6.60;2.70;;;;;;;;;;1038357;28;20025;-81
2022/10/22 00:48:08;;;;;;;8.27;2.40;;;;;;;;;;1035758;28;20081;-82
2022/10/22 00:48:39;;;;;;;2.53;2.20;;;;;;;;;;1035157;28;20034;-82
2022/10/22 00:49:10;;;;;;;4.65;3.20;;;;;;;;;;1036030;28;20061;-83
2022/10/22 00:49:42;;;;;;;3.05;2.30;;;;;;;;;;1035657;28;20021;-82
2022/10/22 00:50:22;;;;;;;3.35;2.55;;;;;;;;;;1039800;28;20022;-81
2022/10/22 00:50:55;;;;;;;4.47;2.17;;;;;;;;;;1039266;28;20025;-82
2022/10/22 00:51:29;;;;;;;3.95;2.47;;;;;;;;;;1037238;28;20044;-83
2022/10/22 00:52:00;;;;;;;4.35;2.53;;;;;;;;;;1035348;28;20113;-82
2022/10/22 00:52:32;;;;;;;6.15;2.85;;;;;;;;;;1036118;28;20018;-82
2022/10/22 00:53:04;;;;;;;3.30;1.90;;;;;;;;;;1039895;28;20043;-82
2022/10/22 00:53:40;;;;;;;9.82;2.10;;;;;;;;;;1039246;28;20021;-81
2022/10/22 00:54:11;;;;;;;6.22;2.50;;;;;;;;;;1039028;28;20076;-82
2022/10/22 00:54:42;;;;;;;3.13;2.33;;;;;;;;;;1035061;28;20077;-82
2022/10/22 00:55:14;;;;;;;5.22;2.15;;;;;;;;;;1035071;28;20029;-83
2022/10/22 00:55:45;;;;;;;5.00;2.58;;;;;;;;;;1035808;28;20029;-82
2022/10/22 00:56:17;;;;;;;2.42;2.20;;;;;;;;;;1038644;28;20084;-82
2022/10/22 00:56:48;;;;;;;3.58;2.53;;;;;;;;;;1039305;28;20018;-82
2022/10/22 00:57:19;;;;;;;3.80;2.45;;;;;;;;;;1039048;28;20029;-81
2022/10/22 00:57:51;;;;;;;4.78;2.20;;;;;;;;;;1039157;28;20092;-81
2022/10/22 00:58:24;;;;;;;4.68;2.30;;;;;;;;;;1035305;28;20033;-81
2022/10/22 00:58:59;;;;;;;6.55;2.47;;;;;;;;;;1035597;28;20026;-82
2022/10/22 00:59:31;;;;;;;2.38;2.15;;;;;;;;;;1039000;28;20029;-82
2022/10/22 01:00:03;;;;;;;4.93;3.08;;;;;;;;;;1035145;28;20061;-82
2022/10/22 01:00:34;;;;;;;4.45;2.30;;;;;;;;;;1036933;28;20029;-82
2022/10/22 01:01:05;;;;;;;4.55;2.33;;;;;;;;;;1038217;28;20109;-81
2022/10/22 01:01:36;;;;;;;3.80;2.58;;;;;;;;;;1035634;28;20029;-81
2022/10/22 01:02:07;;;;;;;4.30;2.33;;;;;;;;;;1039265;28;20044;-81
2022/10/22 01:02:38;;;;;;;4.57;2.45;;;;;;;;;;1039377;28;20116;-82
2022/10/22 01:03:09;;;;;;;4.43;2.25;;;;;;;;;;1039942;28;20587;-82
2022/10/22 01:03:40;;;;;;;3.90;2.55;;;;;;;;;;1039363;28;20071;-82
2022/10/22 01:04:11;;;;;;;2.90;2.13;;;;;;;;;;1039404;28;20037;-81
2022/10/22 01:04:42;;;;;;;5.85;2.20;;;;;;;;;;1039130;28;20045;-82
2022/10/22 01:05:13;;;;;;;5.35;2.40;;;;;;;;;;1039545;28;20117;-82
2022/10/22 01:05:57;;;;;;;3.33;2.22;;;;;;;;;;1039752;28;20025;-82
2022/10/22 01:06:30;;;;;;;3.03;2.03;;;;;;;;;;1037044;28;20025;-82
2022/10/22 01:07:01;;;;;;;3.47;2.00;;;;;;;;;;1034823;28;20584;-81
2022/10/22 01:07:35;;;;;;;3.78;2.00;;;;;;;;;;1030952;28;20057;-81
2022/10/22 01:08:08;;;;;;;3.55;2.10;;;;;;;;;;1032307;28;20153;-81
2022/10/22 01:08:46;;;;;;;3.03;2.15;;;;;;;;;;1035197;28;20026;-82
2022/10/22 01:09:40;;;;;;;4.63;2.60;;;;;;;;;;1032893;28;20023;-80
2022/10/22 01:10:25;;;;;;;3.22;2.20;;;;;;;;;;1037073;28;20893;-80
2022/10/22 01:11:15;;;;;;;4.68;2.80;;;;;;;;;;1039904;28;20025;-83
2022/10/22 01:11:51;;;;;;;3.65;2.55;;;;;;;;;;1035490;28;20033;-81
2022/10/22 01:12:36;;;;;;;3.60;2.00;;;;;;;;;;1039018;28;20025;-81
2022/10/22 01:13:16;;;;;;;4.03;2.38;;;;;;;;;;1039120;28;20053;-80
2022/10/22 01:14:02;;;;;;;2.83;2.15;;;;;;;;;;1037087;28;20516;-82
2022/10/22 01:14:51;;;;;;;3.65;2.33;;;;;;;;;;1035014;28;20144;-81
2022/10/22 01:15:25;;;;;;;5.68;3.38;;;;;;;;;;1038068;28;20025;-81
2022/10/22 01:16:10;;;;;;;4.18;2.65;;;;;;;;;;1043811;28;20044;-82
2022/10/22 01:16:48;;;;;;;4.70;2.90;;;;;;;;;;1038995;28;20032;-82
2022/10/22 01:17:35;;;;;;;5.40;3.55;;;;;;;;;;1035115;28;20073;-81
2022/10/22 01:18:09;;;;;;;3.47;2.38;;;;;;;;;;1035368;28;20108;-81
2022/10/22 01:18:57;;;;;;;6.43;2.88;;;;;;;;;;1036920;28;20064;-82
2022/10/22 01:19:31;;;;;;;4.18;2.30;;;;;;;;;;1035113;28;20033;-82
2022/10/22 01:20:20;;;;;;;4.00;2.30;;;;;;;;;;1034935;28;20100;-82
2022/10/22 01:20:54;;;;;;;8.20;2.10;;;;;;;;;;1039398;28;20021;-82
2022/10/22 01:21:36;;;;;;;4.35;2.47;;;;;;;;;;1042594;28;20054;-82
2022/10/22 01:22:11;;;;;;;7.20;3.40;;;;;;;;;;1043341;28;20047;-82
2022/10/22 01:23:02;;;;;;;3.35;2.33;;;;;;;;;;1038966;28;20443;-82
2022/10/22 01:23:52;;;;;;;4.57;2.53;;;;;;;;;;1035274;28;20115;-82
2022/10/22 01:24:43;;;;;;;5.68;3.05;;;;;;;;;;1032229;28;20394;-83
2022/10/22 01:25:20;;;;;;;3.85;2.25;;;;;;;;;;1036724;28;20026;-82
2022/10/22 01:25:51;;;;;;;5.18;2.97;;;;;;;;;;1038932;28;20030;-82
2022/10/22 01:26:31;;;;;;;3.33;2.65;;;;;;;;;;1039928;28;20045;-82
2022/10/22 01:27:09;;;;;;;3.75;2.22;;;;;;;;;;1038764;28;20033;-82
2022/10/22 01:27:49;;;;;;;5.32;2.30;;;;;;;;;;1039066;28;20075;-82
2022/10/22 01:28:20;;;;;;;4.63;2.67;;;;;;;;;;1038936;28;20160;-82
2022/10/22 01:29:11;;;;;;;9.43;3.00;;;;;;;;;;1038064;28;20018;-82
2022/10/22 01:29:48;;;;;;;3.30;2.20;;;;;;;;;;1034893;28;20025;-82
2022/10/22 01:30:19;;;;;;;4.55;2.50;;;;;;;;;;1034680;28;20033;-82
2022/10/22 01:30:53;;;;;;;4.55;1.88;;;;;;;;;;1034929;28;20093;-82
2022/10/22 01:31:25;;;;;;;5.60;2.75;;;;;;;;;;1035682;28;20037;-82
2022/10/22 01:32:00;;;;;;;4.25;2.22;;;;;;;;;;1034929;28;20489;-81
2022/10/22 01:32:33;;;;;;;3.22;2.50;;;;;;;;;;1034710;28;20025;-82
2022/10/22 01:33:06;;;;;;;3.67;2.38;;;;;;;;;;1035060;28;20117;-82
2022/10/22 01:33:37;;;;;;;3.70;2.72;;;;;;;;;;1029663;28;20724;-83
2022/10/22 01:34:10;;;;;;;6.30;2.85;;;;;;;;;;1033854;28;20029;-82
2022/10/22 01:34:43;;;;;;;4.88;2.30;;;;;;;;;;1031528;28;20022;-82
2022/10/22 01:35:17;;;;;;;4.97;2.47;;;;;;;;;;1030201;28;20121;-82
2022/10/22 01:35:48;;;;;;;3.13;2.40;;;;;;;;;;1030715;28;20022;-81
2022/10/22 01:36:20;;;;;;;4.50;2.40;;;;;;;;;;1029106;28;20124;-82
2022/10/22 01:36:52;;;;;;;6.80;2.67;;;;;;;;;;1027503;28;20030;-82
2022/10/22 01:37:25;;;;;;;4.40;2.40;;;;;;;;;;1031459;28;20105;-82
2022/10/22 01:37:58;;;;;;;5.95;2.40;;;;;;;;;;1031137;28;20030;-82
2022/10/22 01:38:29;;;;;;;3.90;2.45;;;;;;;;;;1031844;28;20094;-82
2022/10/22 01:39:01;;;;;;;3.92;2.20;;;;;;;;;;1031378;28;20501;-81
2022/10/22 01:39:33;;;;;;;3.83;2.83;;;;;;;;;;1031579;28;20030;-82
2022/10/22 01:40:05;;;;;;;7.00;2.60;;;;;;;;;;1035097;28;20085;-82
2022/10/22 01:40:36;;;;;;;2.40;2.08;;;;;;;;;;1032146;28;20034;-82
2022/10/22 01:41:07;;;;;;;4.07;2.38;;;;;;;;;;1038981;28;20055;-82
2022/10/22 01:41:39;;;;;;;7.05;3.67;;;;;;;;;;1039750;28;20029;-82
2022/10/22 01:42:11;;;;;;;3.58;2.15;;;;;;;;;;1039095;28;20080;-82
2022/10/22 01:42:42;;;;;;;4.07;2.55;;;;;;;;;;1039010;28;20060;-82
2022/10/22 01:43:14;;;;;;;2.70;2.13;;;;;;;;;;1038972;28;20039;-82
2022/10/22 01:43:45;;;;;;;4.38;2.63;;;;;;;;;;1039057;28;20026;-82
2022/10/22 01:44:23;;;;;;;4.25;2.50;;;;;;;;;;1040313;28;20035;-81
2022/10/22 01:44:54;;;;;;;3.52;2.68;;;;;;;;;;1038887;28;20060;-82
2022/10/22 01:45:25;;;;;;;5.15;2.53;;;;;;;;;;1038870;28;20107;-82
2022/10/22 01:45:58;;;;;;;5.07;2.42;;;;;;;;;;1036448;28;20169;-82
2022/10/22 01:46:29;;;;;;;3.50;2.72;;;;;;;;;;1035496;28;20693;-82
2022/10/22 01:47:23;;;;;;;5.22;2.47;;;;;;;;;;1035032;28;20143;-82
2022/10/22 01:48:20;;;;;;;7.18;2.92;;;;;;;;;;1021130;28;20243;-82
2022/10/22 01:48:51;;;;;;;6.53;3.03;;;;;;;;;;1031635;28;20042;-82
2022/10/22 01:49:27;;;;;;;5.97;3.00;;;;;;;;;;1034039;28;20262;-82
2022/10/22 01:50:01;;;;;;;4.60;2.53;;;;;;;;;;1038902;28;20681;-82
2022/10/22 01:50:38;;;;;;;4.72;2.45;;;;;;;;;;1039014;28;20025;-83
2022/10/22 01:51:11;;;;;;;5.35;2.42;;;;;;;;;;1035588;28;20033;-82
2022/10/22 01:52:05;;;;;;;3.78;2.35;;;;;;;;;;1035564;28;20029;-81
2022/10/22 01:52:55;;;;;;;6.63;2.88;;;;;;;;;;1028886;28;20105;-82
2022/10/22 01:53:26;;;;;;;3.30;2.20;;;;;;;;;;1042272;28;20145;-82
2022/10/22 01:54:02;;;;;;;3.25;2.33;;;;;;;;;;1043082;28;20108;-82
2022/10/22 01:54:39;;;;;;;5.88;2.13;;;;;;;;;;1040184;28;20120;-82
2022/10/22 01:55:19;;;;;;;3.20;2.30;;;;;;;;;;1039080;28;20055;-82
2022/10/22 01:56:04;;;;;;;7.93;2.90;;;;;;;;;;1038902;28;20512;-82
2022/10/22 01:56:50;;;;;;;5.07;2.72;;;;;;;;;;1038982;28;20028;-82
2022/10/22 01:57:30;;;;;;;5.13;2.47;;;;;;;;;;1034852;28;20156;-80
2022/10/22 01:58:07;;;;;;;4.88;2.58;;;;;;;;;;1042702;28;20025;-81
2022/10/22 01:58:42;;;;;;;4.55;2.33;;;;;;;;;;1042987;28;20048;-81
2022/10/22 01:59:33;;;;;;;4.32;2.70;;;;;;;;;;1043597;28;20044;-82
2022/10/22 02:00:09;;;;;;;3.60;3.03;;;;;;;;;;1039169;28;20045;-81
2022/10/22 02:00:44;;;;;;;4.65;2.63;;;;;;;;;;1038858;28;20029;-81
2022/10/22 02:01:19;;;;;;;5.10;2.22;;;;;;;;;;1034875;28;20409;-82
2022/10/22 02:02:05;;;;;;;4.18;2.70;;;;;;;;;;1035420;28;20124;-81
2022/10/22 02:02:36;;;;;;;4.38;2.35;;;;;;;;;;1033948;28;20030;-81
2022/10/22 02:03:07;;;;;;;6.50;3.13;;;;;;;;;;1033295;28;20026;-82
2022/10/22 02:03:44;;;;;;;5.13;2.10;;;;;;;;;;1030613;28;20025;-82
2022/10/22 02:04:18;;;;;;;6.45;2.75;;;;;;;;;;1031881;28;20034;-81
2022/10/22 02:04:52;;;;;;;3.00;2.08;;;;;;;;;;1032742;28;20022;-81
2022/10/22 02:05:23;;;;;;;4.43;2.40;;;;;;;;;;1036744;28;20069;-81
2022/10/22 02:05:56;;;;;;;4.85;3.08;;;;;;;;;;1033530;28;20025;-82
2022/10/22 02:06:28;;;;;;;4.57;2.25;;;;;;;;;;1031113;28;20038;-81
2022/10/22 02:07:01;;;;;;;6.90;2.30;;;;;;;;;;1031941;28;20022;-81
2022/10/22 02:07:35;;;;;;;3.20;2.45;;;;;;;;;;1034993;28;20033;-81
2022/10/22 02:08:09;;;;;;;3.72;2.45;;;;;;;;;;1030465;28;20520;-82
2022/10/22 02:08:40;;;;;;;4.05;2.33;;;;;;;;;;1037255;28;20089;-81
2022/10/22 02:09:13;;;;;;;4.00;1.95;;;;;;;;;;1038859;28;20030;-81
2022/10/22 02:09:45;;;;;;;3.10;2.50;;;;;;;;;;1039707;28;20091;-81
2022/10/22 02:10:17;;;;;;;4.20;2.40;;;;;;;;;;1037632;28;20033;-82
2022/10/22 02:10:49;;;;;;;5.07;2.80;;;;;;;;;;1036205;28;20036;-83
2022/10/22 02:11:20;;;;;;;4.28;2.70;;;;;;;;;;1034759;28;20030;-82
2022/10/22 02:11:51;;;;;;;8.27;2.80;;;;;;;;;;1034965;28;20041;-82
2022/10/22 02:12:23;;;;;;;7.10;3.08;;;;;;;;;;1036522;28;20034;-82
2022/10/22 02:12:55;;;;;;;5.93;2.72;;;;;;;;;;1038549;28;20093;-82
2022/10/22 02:13:46;;;;;;;4.20;2.38;;;;;;;;;;1034548;28;20025;-82
2022/10/22 02:14:18;;;;;;;5.20;3.10;;;;;;;;;;1036946;28;20527;-81
2022/10/22 02:14:50;;;;;;;6.95;2.78;;;;;;;;;;1039812;28;20084;-81
2022/10/22 02:15:23;;;;;;;4.45;2.70;;;;;;;;;;1035462;28;20025;-81
2022/10/22 02:15:55;;;;;;;3.80;2.63;;;;;;;;;;1038977;28;20026;-80
2022/10/22 02:16:30;;;;;;;5.55;2.42;;;;;;;;;;1034889;28;20777;-80
2022/10/22 02:17:01;;;;;;;5.00;3.03;;;;;;;;;;1035972;28;20030;-81
2022/10/22 02:17:34;;;;;;;4.47;2.65;;;;;;;;;;1040216;28;20025;-81
2022/10/22 02:18:06;;;;;;;3.20;2.72;;;;;;;;;;1038136;28;20021;-82
2022/10/22 02:18:39;;;;;;;4.68;2.63;;;;;;;;;;1034907;28;20117;-81
2022/10/22 02:19:33;;;;;;;4.07;2.22;;;;;;;;;;1030998;28;20030;-80
2022/10/22 02:20:30;;;;;;;4.68;3.38;;;;;;;;;;1025871;28;20067;-82
2022/10/22 02:21:01;;;;;;;2.78;2.30;;;;;;;;;;1039071;28;20033;-81
2022/10/22 02:21:32;;;;;;;3.83;2.15;;;;;;;;;;1034728;28;20673;-81
2022/10/22 02:22:04;;;;;;;4.07;2.42;;;;;;;;;;1034785;28;20022;-80
2022/10/22 02:22:38;;;;;;;6.63;2.85;;;;;;;;;;1035482;28;20037;-82
2022/10/22 02:23:10;;;;;;;5.57;2.45;;;;;;;;;;1035703;28;20018;-82
2022/10/22 02:23:41;;;;;;;5.75;2.85;;;;;;;;;;1034908;28;20112;-81
2022/10/22 02:24:12;;;;;;;5.60;2.90;;;;;;;;;;1034796;28;20113;-81
2022/10/22 02:24:43;;;;;;;6.82;2.67;;;;;;;;;;1034922;28;20032;-81
2022/10/22 02:25:14;;;;;;;4.13;3.30;;;;;;;;;;1031126;28;20023;-81
2022/10/22 02:25:47;;;;;;;6.65;2.58;;;;;;;;;;1030731;28;20026;-81
2022/10/22 02:26:18;;;;;;;4.78;3.00;;;;;;;;;;1030788;28;20026;-81
2022/10/22 02:27:06;;;;;;;5.10;2.60;;;;;;;;;;1035364;28;20551;-82
2022/10/22 02:27:43;;;;;;;4.72;2.67;;;;;;;;;;1037061;28;20326;-82
2022/10/22 02:28:17;;;;;;;6.30;3.35;;;;;;;;;;1034377;28;20491;-82
2022/10/22 02:29:06;;;;;;;6.38;3.00;;;;;;;;;;1037351;28;20018;-82
2022/10/22 02:29:39;;;;;;;5.07;2.70;;;;;;;;;;1033861;28;20088;-81
2022/10/22 02:30:12;;;;;;;4.18;2.75;;;;;;;;;;1031895;28;20559;-82
2022/10/22 02:30:46;;;;;;;4.45;2.72;;;;;;;;;;1033713;28;20014;-82
2022/10/22 02:31:23;;;;;;;5.93;2.58;;;;;;;;;;1034432;28;20025;-82
2022/10/22 02:31:55;;;;;;;5.40;2.92;;;;;;;;;;1036279;28;20485;-82
2022/10/22 02:32:28;;;;;;;7.75;3.53;;;;;;;;;;1038866;28;20033;-82
2022/10/22 02:32:58;;;;;;;4.32;3.05;;;;;;;;;;1040574;28;20075;-83
2022/10/22 02:33:32;;;;;;;3.88;2.58;;;;;;;;;;1042894;28;20075;-82
2022/10/22 02:34:08;;;;;;;5.32;2.63;;;;;;;;;;1043010;28;20418;-80
2022/10/22 02:34:40;;;;;;;4.60;2.50;;;;;;;;;;1035909;28;20137;-83
2022/10/22 02:35:13;;;;;;;4.97;2.85;;;;;;;;;;1035346;28;20018;-81
2022/10/22 02:35:44;;;;;;;8.38;3.38;;;;;;;;;;1034542;28;20026;-81
2022/10/22 02:36:16;;;;;;;4.95;3.53;;;;;;;;;;1034603;28;20068;-82
2022/10/22 02:36:48;;;;;;;4.55;2.90;;;;;;;;;;1035548;28;20041;-83
2022/10/22 02:37:19;;;;;;;4.97;2.72;;;;;;;;;;1038712;28;20579;-81
2022/10/22 02:37:50;;;;;;;4.28;2.95;;;;;;;;;;1039555;28;20014;-81
2022/10/22 02:38:23;;;;;;;3.70;2.95;;;;;;;;;;1034546;28;20068;-82
2022/10/22 02:38:54;;;;;;;3.67;2.75;;;;;;;;;;1037270;28;20022;-81
2022/10/22 02:39:26;;;;;;;6.22;2.53;;;;;;;;;;1038788;28;20033;-83
2022/10/22 02:39:57;;;;;;;4.63;3.38;;;;;;;;;;1030701;28;20031;-82
2022/10/22 02:40:30;;;;;;;4.47;2.90;;;;;;;;;;1030096;28;20033;-82
2022/10/22 02:41:01;;;;;;;5.22;3.00;;;;;;;;;;1026716;28;20058;-81
2022/10/22 02:41:32;;;;;;;5.57;2.65;;;;;;;;;;1027981;28;20065;-82
2022/10/22 02:42:03;;;;;;;10.70;4.20;;;;;;;;;;1031259;28;20022;-82
2022/10/22 02:42:36;;;;;;;3.78;2.83;;;;;;;;;;1034902;28;20029;-82
2022/10/22 02:43:06;;;;;;;3.88;2.97;;;;;;;;;;1039575;28;20455;-81
2022/10/22 02:43:41;;;;;;;5.70;3.35;;;;;;;;;;1034754;28;20485;-81
2022/10/22 02:44:12;;;;;;;6.15;3.00;;;;;;;;;;1038438;28;20071;-82
2022/10/22 02:44:43;;;;;;;3.97;2.55;;;;;;;;;;1034882;28;20018;-82
2022/10/22 02:45:15;;;;;;;4.28;2.58;;;;;;;;;;1034884;28;20572;-82
2022/10/22 02:45:46;;;;;;;7.75;3.67;;;;;;;;;;1037413;28;20021;-81
2022/10/22 02:46:17;;;;;;;3.40;2.85;;;;;;;;;;1038825;28;20532;-81
2022/10/22 02:46:48;;;;;;;6.25;3.08;;;;;;;;;;1038672;28;20544;-81
2022/10/22 02:47:19;;;;;;;3.88;2.80;;;;;;;;;;1038609;28;20022;-81
2022/10/22 02:47:50;;;;;;;5.82;3.45;;;;;;;;;;1039318;28;20027;-81
2022/10/22 02:48:21;;;;;;;12.98;2.95;;;;;;;;;;1037383;28;20029;-81
2022/10/22 02:48:52;;;;;;;4.63;2.95;;;;;;;;;;1034693;28;20661;-81
2022/10/22 02:49:23;;;;;;;6.82;3.47;;;;;;;;;;1038765;28;20041;-81
2022/10/22 02:49:54;;;;;;;3.72;2.90;;;;;;;;;;1038636;28;20468;-81
2022/10/22 02:50:25;;;;;;;4.25;3.22;;;;;;;;;;1035221;28;20068;-81
2022/10/22 02:50:56;;;;;;;6.47;3.08;;;;;;;;;;1030777;28;20026;-81
2022/10/22 02:51:27;;;;;;;4.03;2.80;;;;;;;;;;1030490;28;20030;-81
2022/10/22 02:51:58;;;;;;;4.10;2.97;;;;;;;;;;1030922;28;20121;-80
2022/10/22 02:52:29;;;;;;;5.97;3.58;;;;;;;;;;1034985;28;20028;-81
2022/10/22 02:53:00;;;;;;;3.60;2.80;;;;;;;;;;1035325;28;20025;-80
2022/10/22 02:53:31;;;;;;;4.60;2.70;;;;;;;;;;1035143;28;20436;-81
2022/10/22 02:54:02;;;;;;;3.38;2.38;;;;;;;;;;1035216;28;20120;-81
2022/10/22 02:54:33;;;;;;;5.32;3.38;;;;;;;;;;1034301;28;20589;-81
2022/10/22 02:55:04;;;;;;;5.20;3.13;;;;;;;;;;1034618;28;20109;-81
2022/10/22 02:55:35;;;;;;;5.63;3.13;;;;;;;;;;1031236;28;20029;-82
2022/10/22 02:56:07;;;;;;;6.47;3.60;;;;;;;;;;1030947;28;20057;-81
2022/10/22 02:56:38;;;;;;;5.05;3.30;;;;;;;;;;1030511;28;20018;-81
2022/10/22 02:57:08;;;;;;;6.20;4.03;;;;;;;;;;1030636;28;20112;-82
2022/10/22 02:57:39;;;;;;;6.10;3.90;;;;;;;;;;1033225;28;20066;-82
2022/10/22 02:58:12;;;;;;;7.82;3.45;;;;;;;;;;1035723;28;20022;-82
2022/10/22 02:58:43;;;;;;;5.25;3.53;;;;;;;;;;1038770;28;20488;-81
2022/10/22 02:59:14;;;;;;;5.85;3.20;;;;;;;;;;1036104;28;20467;-81
2022/10/22 02:59:45;;;;;;;4.60;3.28;;;;;;;;;;1039380;28;20475;-80
2022/10/22 03:00:16;;;;;;;6.70;3.38;;;;;;;;;;1038763;28;20076;-79
2022/10/22 03:00:48;;;;;;;7.13;3.13;;;;;;;;;;1035142;28;20136;-81
2022/10/22 03:01:19;;;;;;;4.93;3.47;;;;;;;;;;1034854;28;20084;-81
2022/10/22 03:01:50;;;;;;;4.85;3.10;;;;;;;;;;1034888;28;20117;-80
2022/10/22 03:02:21;;;;;;;5.07;3.35;;;;;;;;;;1034846;28;20026;-80
2022/10/22 03:02:52;;;;;;;5.20;2.90;;;;;;;;;;1034524;28;20026;-81
2022/10/22 03:03:23;;;;;;;6.35;3.22;;;;;;;;;;1039707;28;20037;-81
2022/10/22 03:03:54;;;;;;;5.35;3.15;;;;;;;;;;1038648;28;20591;-82
2022/10/22 03:04:25;;;;;;;5.18;3.25;;;;;;;;;;1034949;28;20135;-82
2022/10/22 03:04:56;;;;;;;3.70;2.60;;;;;;;;;;1038594;28;20384;-82
2022/10/22 03:05:27;;;;;;;3.88;2.67;;;;;;;;;;1034716;28;20083;-82
2022/10/22 03:05:58;;;;;;;7.03;3.35;;;;;;;;;;1035678;28;20095;-83
2022/10/22 03:06:29;;;;;;;6.28;3.63;;;;;;;;;;1036593;28;20539;-82
2022/10/22 03:07:00;;;;;;;4.95;3.15;;;;;;;;;;1034735;28;20089;-82
2022/10/22 03:07:30;;;;;;;4.40;3.20;;;;;;;;;;1034750;28;20022;-82
2022/10/22 03:08:01;;;;;;;4.00;3.03;;;;;;;;;;1034123;28;20544;-82
2022/10/22 03:08:32;;;;;;;5.57;2.97;;;;;;;;;;1035525;28;20037;-81
2022/10/22 03:09:03;;;;;;;3.67;2.50;;;;;;;;;;1034842;28;20667;-81
2022/10/22 03:09:34;;;;;;;5.93;2.97;;;;;;;;;;1041386;28;20018;-82
2022/10/22 03:10:06;;;;;;;6.90;3.40;;;;;;;;;;1042567;28;20044;-81
2022/10/22 03:10:36;;;;;;;4.65;2.80;;;;;;;;;;1042925;28;20114;-81
2022/10/22 03:11:08;;;;;;;7.85;3.53;;;;;;;;;;1042278;28;20041;-80
2022/10/22 03:11:38;;;;;;;5.70;3.60;;;;;;;;;;1038803;28;20017;-80
2022/10/22 03:12:09;;;;;;;4.18;2.60;;;;;;;;;;1038841;28;20021;-81
2022/10/22 03:12:40;;;;;;;3.45;2.60;;;;;;;;;;1038967;28;20028;-81
2022/10/22 03:13:11;;;;;;;8.00;3.60;;;;;;;;;;1034592;28;20033;-81
2022/10/22 03:13:42;;;;;;;4.20;2.92;;;;;;;;;;1035494;28;20029;-82
2022/10/22 03:14:13;;;;;;;7.78;2.70;;;;;;;;;;1034857;28;20116;-81
2022/10/22 03:14:44;;;;;;;4.50;2.58;;;;;;;;;;1036600;28;20110;-81
2022/10/22 03:15:15;;;;;;;6.47;3.00;;;;;;;;;;1039202;28;20477;-81
2022/10/22 03:15:49;;;;;;;4.28;2.78;;;;;;;;;;1035507;28;20026;-81
2022/10/22 03:16:20;;;;;;;4.18;3.03;;;;;;;;;;1036522;28;20022;-81
2022/10/22 03:16:51;;;;;;;3.70;2.72;;;;;;;;;;1039650;28;20044;-81
2022/10/22 03:17:23;;;;;;;3.53;2.60;;;;;;;;;;1039485;28;20088;-81
2022/10/22 03:17:54;;;;;;;5.55;3.22;;;;;;;;;;1039942;28;20484;-81
2022/10/22 03:18:25;;;;;;;5.35;2.90;;;;;;;;;;1039628;28;20024;-81
2022/10/22 03:18:56;;;;;;;3.40;2.80;;;;;;;;;;1036219;28;20033;-81
2022/10/22 03:19:27;;;;;;;5.28;2.90;;;;;;;;;;1035546;28;20084;-81
2022/10/22 03:19:57;;;;;;;6.32;3.88;;;;;;;;;;1031510;28;20018;-81
2022/10/22 03:20:28;;;;;;;4.32;2.90;;;;;;;;;;1035497;28;20096;-81
2022/10/22 03:21:01;;;;;;;5.75;3.55;;;;;;;;;;1035545;28;20104;-81